createdAt,value
2022-08-21T00:00:35.913Z,1.63
2022-08-21T00:03:22.655Z,1.30
2022-08-21T00:06:09.482Z,1.83
2022-08-21T00:09:05.628Z,1.97
2022-08-21T00:11:53.573Z,2.57
2022-08-21T00:14:40.229Z,2.15
2022-08-21T00:17:28.280Z,2.15
2022-08-21T00:20:15.825Z,1.83
2022-08-21T00:23:02.433Z,1.77
2022-08-21T00:25:49.608Z,2.10
2022-08-21T00:28:36.342Z,1.60
2022-08-21T00:31:23.146Z,1.98
2022-08-21T00:34:11.662Z,2.15
2022-08-21T00:36:58.622Z,2.25
2022-08-21T00:39:45.604Z,1.88
2022-08-21T00:42:32.854Z,2.05
2022-08-21T00:45:19.571Z,2.00
2022-08-21T00:48:06.853Z,1.73
2022-08-21T00:50:58.369Z,2.30
2022-08-21T00:53:48.020Z,2.13
2022-08-21T00:56:41.090Z,2.03
2022-08-21T00:59:31.969Z,1.90
2022-08-21T01:02:19.558Z,1.48
2022-08-21T01:05:06.546Z,1.60
2022-08-21T01:07:54.811Z,1.90
2022-08-21T01:10:41.589Z,2.03
2022-08-21T01:13:30.105Z,1.90
2022-08-21T01:16:19.033Z,1.60
2022-08-21T01:19:05.668Z,1.88
2022-08-21T01:21:54.625Z,2.17
2022-08-21T01:24:42.068Z,1.20
2022-08-21T01:27:28.753Z,1.70
2022-08-21T01:30:16.732Z,1.63
2022-08-21T01:33:03.617Z,2.17
2022-08-21T01:35:50.617Z,2.23
2022-08-21T01:38:39.057Z,2.25
2022-08-21T01:41:26.199Z,2.13
2022-08-21T01:44:13.190Z,1.70
2022-08-21T01:47:00.743Z,1.47
2022-08-21T01:49:48.095Z,2.33
2022-08-21T01:52:35.161Z,1.60
2022-08-21T01:55:24.175Z,2.13
2022-08-21T01:58:11.166Z,2.10
2022-08-21T02:00:58.143Z,2.65
2022-08-21T02:03:45.301Z,2.40
2022-08-21T02:06:31.992Z,1.75
2022-08-21T02:09:19.157Z,1.83
2022-08-21T02:12:08.878Z,2.10
2022-08-21T02:14:56.010Z,2.22
2022-08-21T02:17:43.959Z,2.03
2022-08-21T02:20:33.162Z,2.47
2022-08-21T02:23:20.095Z,2.28
2022-08-21T02:26:14.698Z,2.22
2022-08-21T02:29:04.078Z,1.87
2022-08-21T02:31:50.802Z,2.15
2022-08-21T02:34:37.424Z,1.80
2022-08-21T02:37:24.632Z,2.20
2022-08-21T02:40:12.354Z,2.60
2022-08-21T02:42:59.751Z,1.70
2022-08-21T02:45:48.338Z,1.80
2022-08-21T02:48:35.951Z,2.03
2022-08-21T02:51:23.612Z,2.28
2022-08-21T02:54:10.701Z,2.25
2022-08-21T02:56:57.266Z,1.73
2022-08-21T02:59:44.222Z,1.63
2022-08-21T03:02:32.178Z,1.73
2022-08-21T03:05:20.446Z,1.83
2022-08-21T03:08:10.382Z,1.90
2022-08-21T03:10:57.319Z,1.95
2022-08-21T03:13:44.438Z,1.45
2022-08-21T03:16:34.865Z,1.80
2022-08-21T03:19:23.357Z,2.00
2022-08-21T03:22:10.188Z,1.80
2022-08-21T03:24:58.082Z,1.35
2022-08-21T03:27:44.641Z,2.95
2022-08-21T03:30:32.132Z,2.03
2022-08-21T03:33:20.678Z,1.77
2022-08-21T03:36:12.424Z,1.50
2022-08-21T03:38:59.358Z,1.70
2022-08-21T03:41:46.226Z,1.60
2022-08-21T03:44:33.366Z,2.20
2022-08-21T03:47:20.426Z,1.88
2022-08-21T03:50:08.773Z,1.77
2022-08-21T03:52:57.647Z,1.70
2022-08-21T03:55:44.862Z,2.00
2022-08-21T03:58:31.972Z,1.80
2022-08-21T04:01:18.724Z,1.88
2022-08-21T04:04:06.028Z,3.05
2022-08-21T04:06:52.909Z,1.75
2022-08-21T04:09:41.043Z,1.92
2022-08-21T04:12:28.113Z,2.17
2022-08-21T04:15:15.638Z,1.98
2022-08-21T04:18:02.438Z,1.40
2022-08-21T04:20:50.841Z,2.08
2022-08-21T04:23:37.839Z,1.90
2022-08-21T04:26:26.501Z,1.55
2022-08-21T04:29:13.332Z,1.73
2022-08-21T04:32:00.269Z,2.22
2022-08-21T04:34:47.101Z,1.88
2022-08-21T04:37:33.949Z,2.00
2022-08-21T04:40:29.653Z,1.70
2022-08-21T04:43:17.887Z,1.55
2022-08-21T04:46:04.423Z,1.90
2022-08-21T04:48:51.258Z,2.63
2022-08-21T04:51:39.689Z,1.85
2022-08-21T04:54:26.259Z,1.23
2022-08-21T04:57:14.256Z,1.52
2022-08-21T05:00:03.760Z,1.70
2022-08-21T05:02:55.214Z,1.80
2022-08-21T05:05:42.215Z,1.48
2022-08-21T05:08:29.835Z,1.35
2022-08-21T05:11:16.916Z,1.60
2022-08-21T05:14:03.952Z,1.60
2022-08-21T05:16:52.574Z,1.60
2022-08-21T05:19:39.342Z,1.98
2022-08-21T05:22:26.806Z,1.80
2022-08-21T05:25:13.517Z,1.58
2022-08-21T05:28:00.791Z,1.88
2022-08-21T05:30:47.888Z,1.38
2022-08-21T05:33:35.926Z,1.88
2022-08-21T05:36:24.601Z,1.65
2022-08-21T05:39:11.310Z,1.80
2022-08-21T05:41:58.017Z,1.85
2022-08-21T05:44:44.708Z,2.35
2022-08-21T05:47:31.995Z,1.60
2022-08-21T05:50:20.179Z,1.48
2022-08-21T05:53:07.780Z,1.42
2022-08-21T05:55:54.680Z,1.48
2022-08-21T05:58:41.397Z,1.70
2022-08-21T06:01:28.351Z,1.90
2022-08-21T06:04:18.841Z,1.55
2022-08-21T06:07:06.977Z,1.90
2022-08-21T06:09:53.817Z,1.70
2022-08-21T06:12:40.451Z,2.17
2022-08-21T06:15:29.386Z,1.60
2022-08-21T06:18:22.224Z,1.60
2022-08-21T06:21:09.426Z,1.40
2022-08-21T06:23:57.599Z,1.52
2022-08-21T06:26:44.674Z,1.65
2022-08-21T06:29:31.514Z,2.20
2022-08-21T06:32:31.889Z,1.83
2022-08-21T06:35:18.875Z,1.43
2022-08-21T06:38:05.629Z,1.63
2022-08-21T06:40:56.857Z,1.77
2022-08-21T06:43:44.972Z,1.50
2022-08-21T06:46:32.897Z,1.58
2022-08-21T06:49:21.499Z,1.85
2022-08-21T06:52:11.937Z,2.28
2022-08-21T06:54:58.856Z,1.55
2022-08-21T06:57:47.941Z,1.47
2022-08-21T07:00:41.633Z,1.40
2022-08-21T07:03:30.333Z,1.58
2022-08-21T07:06:18.018Z,1.20
2022-08-21T07:09:05.331Z,1.45
2022-08-21T07:11:53.350Z,1.70
2022-08-21T07:14:41.460Z,1.55
2022-08-21T07:17:28.433Z,2.08
2022-08-21T07:20:15.369Z,1.30
2022-08-21T07:23:03.584Z,1.63
2022-08-21T07:25:50.502Z,1.25
2022-08-21T07:28:37.368Z,1.27
2022-08-21T07:31:26.239Z,1.23
2022-08-21T07:34:13.054Z,1.23
2022-08-21T07:36:59.927Z,1.25
2022-08-21T07:39:53.556Z,1.10
2022-08-21T07:42:42.364Z,2.20
2022-08-21T07:45:29.257Z,1.33
2022-08-21T07:48:17.920Z,2.30
2022-08-21T07:51:08.254Z,1.27
2022-08-21T07:53:56.253Z,1.70
2022-08-21T07:56:43.069Z,1.73
2022-08-21T07:59:30.177Z,1.45
2022-08-21T08:02:23.975Z,1.40
2022-08-21T08:05:13.051Z,1.58
2022-08-21T08:08:00.335Z,1.77
2022-08-21T08:10:47.169Z,1.17
2022-08-21T08:13:34.236Z,1.65
2022-08-21T08:16:21.398Z,1.45
2022-08-21T08:19:08.071Z,1.40
2022-08-21T08:21:56.293Z,1.02
2022-08-21T08:24:43.296Z,1.17
2022-08-21T08:27:30.343Z,1.25
2022-08-21T08:30:19.077Z,1.17
2022-08-21T08:33:06.171Z,1.23
2022-08-21T08:35:53.745Z,0.95
2022-08-21T08:38:41.943Z,1.17
2022-08-21T08:41:31.622Z,1.33
2022-08-21T08:44:18.377Z,1.60
2022-08-21T08:47:07.320Z,1.40
2022-08-21T08:49:57.825Z,1.60
2022-08-21T08:52:46.084Z,0.90
2022-08-21T08:55:37.229Z,1.15
2022-08-21T08:58:26.200Z,1.30
2022-08-21T09:01:16.457Z,1.17
2022-08-21T09:04:03.568Z,0.88
2022-08-21T09:06:56.759Z,0.95
2022-08-21T09:09:51.116Z,0.77
2022-08-21T09:12:42.094Z,0.95
2022-08-21T09:15:32.050Z,0.70
2022-08-21T09:18:28.381Z,0.95
2022-08-21T09:21:19.478Z,1.10
2022-08-21T09:24:15.710Z,0.70
2022-08-21T09:27:07.110Z,1.35
2022-08-21T09:29:58.791Z,0.88
2022-08-21T09:32:45.631Z,0.90
2022-08-21T09:35:33.376Z,0.70
2022-08-21T09:38:27.724Z,1.17
2022-08-21T09:41:14.684Z,0.50
2022-08-21T09:44:01.270Z,0.93
2022-08-21T09:46:54.376Z,0.80
2022-08-21T09:49:42.409Z,0.75
2022-08-21T09:52:29.391Z,0.47
2022-08-21T09:55:39.107Z,0.70
2022-08-21T09:58:32.059Z,0.93
2022-08-21T10:01:20.140Z,0.65
2022-08-21T10:04:11.944Z,0.60
2022-08-21T10:07:08.302Z,0.90
2022-08-21T10:10:02.835Z,0.82
2022-08-21T10:12:52.080Z,0.73
2022-08-21T10:15:44.796Z,0.35
2022-08-21T10:18:37.363Z,1.23
2022-08-21T10:21:27.545Z,1.02
2022-08-21T10:24:23.611Z,0.77
2022-08-21T10:27:21.898Z,0.65
2022-08-21T10:30:09.725Z,0.73
2022-08-21T10:33:08.012Z,0.93
2022-08-21T10:35:59.320Z,0.70
2022-08-21T10:39:25.231Z,0.40
2022-08-21T10:42:13.406Z,1.10
2022-08-21T10:45:06.421Z,0.70
2022-08-21T10:47:58.127Z,0.75
2022-08-21T10:50:50.638Z,0.50
2022-08-21T10:53:43.785Z,0.88
2022-08-21T10:56:33.481Z,0.80
2022-08-21T10:59:26.725Z,0.88
2022-08-21T11:02:16.840Z,0.50
2022-08-21T11:05:05.174Z,0.80
2022-08-21T11:07:54.305Z,0.98
2022-08-21T11:10:57.843Z,1.10
2022-08-21T11:13:49.821Z,0.90
2022-08-21T11:16:39.344Z,0.50
2022-08-21T11:19:29.402Z,0.65
2022-08-21T11:22:18.058Z,0.47
2022-08-21T11:25:09.353Z,0.47
2022-08-21T11:27:58.729Z,0.75
2022-08-21T11:30:50.321Z,0.90
2022-08-21T11:33:45.369Z,0.90
2022-08-21T11:36:35.180Z,0.60
2022-08-21T11:39:28.058Z,1.00
2022-08-21T11:42:19.391Z,0.70
2022-08-21T11:45:13.113Z,0.90
2022-08-21T11:48:06.478Z,0.88
2022-08-21T11:50:54.370Z,0.77
2022-08-21T11:53:43.259Z,0.68
2022-08-21T11:56:33.366Z,1.20
2022-08-21T11:59:23.258Z,0.80
2022-08-21T12:02:15.355Z,0.80
2022-08-21T12:05:08.740Z,0.60
2022-08-21T12:08:03.083Z,0.60
2022-08-21T12:11:01.862Z,0.63
2022-08-21T12:13:55.600Z,0.70
2022-08-21T12:16:43.872Z,0.73
2022-08-21T12:19:32.110Z,0.50
2022-08-21T12:22:20.018Z,0.60
2022-08-21T12:25:08.594Z,0.70
2022-08-21T12:28:04.085Z,0.90
2022-08-21T12:30:54.921Z,0.98
2022-08-21T12:33:44.850Z,1.00
2022-08-21T12:36:45.120Z,1.40
2022-08-21T12:39:35.111Z,0.90
2022-08-21T12:42:23.574Z,1.13
2022-08-21T12:45:17.703Z,0.70
2022-08-21T12:48:07.219Z,1.13
2022-08-21T12:50:54.916Z,1.30
2022-08-21T12:53:45.022Z,0.93
2022-08-21T12:56:34.464Z,1.10
2022-08-21T12:59:22.539Z,0.77
2022-08-21T13:02:26.305Z,1.00
2022-08-21T13:05:16.037Z,0.73
2022-08-21T13:08:06.346Z,0.47
2022-08-21T13:10:59.185Z,0.95
2022-08-21T13:13:51.125Z,1.30
2022-08-21T13:16:39.909Z,0.93
2022-08-21T13:19:27.868Z,1.10
2022-08-21T13:22:33.287Z,0.63
2022-08-21T13:25:23.233Z,1.20
2022-08-21T13:28:12.445Z,1.20
2022-08-21T13:31:02.564Z,0.65
2022-08-21T13:33:51.336Z,0.90
2022-08-21T13:36:39.000Z,1.08
2022-08-21T13:39:26.249Z,1.27
2022-08-21T13:42:15.025Z,0.40
2022-08-21T13:45:01.847Z,1.15
2022-08-21T13:47:50.623Z,1.00
2022-08-21T13:50:39.145Z,0.80
2022-08-21T13:53:30.618Z,0.80
2022-08-21T13:56:25.468Z,0.70
2022-08-21T13:59:12.326Z,0.85
2022-08-21T14:02:00.971Z,1.45
2022-08-21T14:04:54.460Z,0.80
2022-08-21T14:07:43.287Z,1.25
2022-08-21T14:10:30.473Z,1.13
2022-08-21T14:13:29.199Z,1.23
2022-08-21T14:16:19.026Z,1.45
2022-08-21T14:19:13.479Z,0.77
2022-08-21T14:22:01.548Z,1.02
2022-08-21T14:24:55.118Z,1.75
2022-08-21T14:27:45.575Z,1.20
2022-08-21T14:30:34.339Z,1.30
2022-08-21T14:33:25.032Z,1.35
2022-08-21T14:36:12.004Z,1.17
2022-08-21T14:39:00.610Z,1.42
2022-08-21T14:41:50.087Z,1.20
2022-08-21T14:44:37.399Z,0.80
2022-08-21T14:47:24.385Z,1.00
2022-08-21T14:50:12.197Z,1.20
2022-08-21T14:52:58.966Z,1.20
2022-08-21T14:56:01.430Z,1.63
2022-08-21T14:58:50.529Z,1.02
2022-08-21T15:01:38.886Z,1.38
2022-08-21T15:04:25.930Z,0.90
2022-08-21T15:07:12.805Z,1.17
2022-08-21T15:09:59.652Z,1.05
2022-08-21T15:12:47.703Z,1.20
2022-08-21T15:15:36.829Z,1.85
2022-08-21T15:18:23.908Z,1.20
2022-08-21T15:21:10.765Z,2.00
2022-08-21T15:23:57.521Z,1.42
2022-08-21T15:26:45.395Z,1.20
2022-08-21T15:29:34.070Z,1.50
2022-08-21T15:32:23.697Z,2.10
2022-08-21T15:35:10.817Z,1.50
2022-08-21T15:37:57.556Z,1.30
2022-08-21T15:40:51.767Z,1.10
2022-08-21T15:43:41.200Z,1.30
2022-08-21T15:46:29.206Z,0.97
2022-08-21T15:49:16.063Z,0.65
2022-08-21T15:52:03.162Z,0.45
2022-08-21T15:54:50.081Z,1.70
2022-08-21T15:57:37.274Z,0.88
2022-08-21T16:00:25.477Z,1.00
2022-08-21T16:03:15.910Z,1.15
2022-08-21T16:06:02.743Z,1.70
2022-08-21T16:08:49.740Z,1.30
2022-08-21T16:11:36.291Z,1.50
2022-08-21T16:14:22.969Z,0.95
2022-08-21T16:17:10.281Z,1.27
2022-08-21T16:19:58.362Z,2.38
2022-08-21T16:22:45.505Z,0.60
2022-08-21T16:25:34.044Z,1.20
2022-08-21T16:28:23.222Z,1.13
2022-08-21T16:31:10.785Z,1.15
2022-08-21T16:34:03.256Z,1.85
2022-08-21T16:36:51.385Z,1.10
2022-08-21T16:39:38.366Z,0.60
2022-08-21T16:42:27.068Z,1.50
2022-08-21T16:45:15.305Z,0.88
2022-08-21T16:48:04.363Z,0.70
2022-08-21T16:50:51.346Z,0.63
2022-08-21T16:53:39.693Z,0.50
2022-08-21T16:56:26.563Z,1.35
2022-08-21T16:59:14.382Z,0.80
2022-08-21T17:02:04.249Z,0.63
2022-08-21T17:04:51.625Z,0.82
2022-08-21T17:07:38.287Z,0.43
2022-08-21T17:10:26.569Z,0.60
2022-08-21T17:13:13.367Z,0.65
2022-08-21T17:16:00.248Z,2.00
2022-08-21T17:18:47.702Z,0.82
2022-08-21T17:21:39.337Z,0.85
2022-08-21T17:24:26.150Z,1.10
2022-08-21T17:27:14.204Z,0.80
2022-08-21T17:30:01.721Z,0.73
2022-08-21T17:32:49.746Z,0.98
2022-08-21T17:35:36.333Z,0.90
2022-08-21T17:38:23.116Z,0.85
2022-08-21T17:41:15.990Z,0.50
2022-08-21T17:44:06.237Z,0.43
2022-08-21T17:46:53.556Z,0.75
2022-08-21T17:49:40.721Z,0.73
2022-08-21T17:52:27.514Z,0.70
2022-08-21T17:55:15.182Z,1.67
2022-08-21T17:58:02.202Z,0.93
2022-08-21T18:00:50.398Z,0.50
2022-08-21T18:03:38.398Z,1.10
2022-08-21T18:06:25.656Z,0.80
2022-08-21T18:09:13.674Z,0.75
2022-08-21T18:12:01.504Z,0.82
2022-08-21T18:14:48.314Z,1.35
2022-08-21T18:17:38.165Z,0.82
2022-08-21T18:20:25.452Z,0.57
2022-08-21T18:23:12.354Z,0.80
2022-08-21T18:25:59.567Z,0.73
2022-08-21T18:28:46.510Z,0.50
2022-08-21T18:31:33.920Z,0.53
2022-08-21T18:34:25.004Z,0.85
2022-08-21T18:37:11.854Z,1.90
2022-08-21T18:39:58.875Z,1.42
2022-08-21T18:42:55.235Z,0.70
2022-08-21T18:45:42.889Z,1.25
2022-08-21T18:48:29.734Z,0.93
2022-08-21T18:51:17.834Z,0.65
2022-08-21T18:54:05.766Z,0.95
2022-08-21T18:56:57.378Z,0.90
2022-08-21T18:59:44.282Z,0.88
2022-08-21T19:02:31.019Z,0.70
2022-08-21T19:05:19.254Z,0.57
2022-08-21T19:08:08.832Z,0.80
2022-08-21T19:11:01.585Z,0.65
2022-08-21T19:13:48.343Z,1.60
2022-08-21T19:16:36.456Z,0.98
2022-08-21T19:19:23.522Z,0.80
2022-08-21T19:22:11.022Z,1.00
2022-08-21T19:24:59.398Z,1.10
2022-08-21T19:27:46.114Z,0.70
2022-08-21T19:30:33.163Z,0.88
2022-08-21T19:33:23.964Z,0.70
2022-08-21T19:36:12.247Z,1.02
2022-08-21T19:38:58.936Z,1.10
2022-08-21T19:41:51.166Z,1.10
2022-08-21T19:44:39.573Z,0.60
2022-08-21T19:50:36.973Z,1.15
2022-08-21T19:53:23.828Z,1.00
2022-08-21T19:56:12.024Z,0.93
2022-08-21T19:59:02.145Z,1.00
2022-08-21T20:01:51.631Z,1.20
2022-08-21T20:04:38.739Z,1.30
2022-08-21T20:07:40.535Z,0.47
2022-08-21T20:10:27.378Z,1.00
2022-08-21T20:13:17.537Z,0.93
2022-08-21T20:16:08.992Z,1.00
2022-08-21T20:18:55.675Z,0.75
2022-08-21T20:21:43.577Z,0.73
2022-08-21T20:24:33.026Z,0.70
2022-08-21T20:27:22.486Z,1.40
2022-08-21T20:30:10.745Z,0.60
2022-08-21T20:32:59.171Z,0.85
2022-08-21T20:35:49.821Z,0.90
2022-08-21T20:38:37.309Z,0.73
2022-08-21T20:41:30.455Z,0.80
2022-08-21T20:44:18.430Z,1.02
2022-08-21T20:47:08.897Z,1.35
2022-08-21T20:49:59.494Z,0.82
2022-08-21T20:52:49.642Z,1.10
2022-08-21T20:55:38.901Z,1.05
2022-08-21T20:58:33.833Z,0.93
2022-08-21T21:01:21.706Z,0.80
2022-08-21T21:04:19.523Z,1.80
2022-08-21T21:07:09.252Z,1.00
2022-08-21T21:09:58.266Z,0.93
2022-08-21T21:12:53.329Z,0.90
2022-08-21T21:15:42.636Z,1.40
2022-08-21T21:18:33.114Z,0.60
2022-08-21T21:21:22.510Z,1.33
2022-08-21T21:24:15.063Z,1.23
2022-08-21T21:30:22.673Z,1.30
2022-08-21T21:33:09.452Z,0.70
2022-08-21T21:36:00.718Z,1.30
2022-08-21T21:38:52.022Z,1.10
2022-08-21T21:41:45.422Z,1.42
2022-08-21T21:44:39.124Z,1.53
2022-08-21T21:47:30.895Z,1.83
2022-08-21T21:50:22.805Z,1.10
2022-08-21T21:53:16.325Z,1.13
2022-08-21T21:56:07.486Z,1.35
2022-08-21T21:59:09.950Z,1.35
2022-08-21T22:01:59.324Z,1.30
2022-08-21T22:04:53.441Z,1.60
2022-08-21T22:07:44.087Z,1.42
2022-08-21T22:10:43.243Z,1.50
2022-08-21T22:13:33.487Z,1.92
2022-08-21T22:16:27.039Z,1.33
2022-08-21T22:19:16.245Z,2.00
2022-08-21T22:22:08.820Z,0.90
2022-08-21T22:25:00.344Z,1.30
2022-08-21T22:27:48.313Z,1.40
2022-08-21T22:30:41.277Z,2.25
2022-08-21T22:33:30.296Z,1.73
2022-08-21T22:36:18.904Z,1.02
2022-08-21T22:39:06.234Z,1.65
2022-08-21T22:41:52.817Z,1.00
2022-08-21T22:44:49.010Z,0.85
2022-08-21T22:47:40.668Z,1.23
2022-08-21T22:50:32.427Z,1.83
2022-08-21T22:53:25.518Z,1.63
2022-08-21T22:56:28.039Z,0.93
2022-08-21T22:59:24.399Z,1.38
2022-08-21T23:02:21.057Z,1.03
2022-08-21T23:05:24.880Z,1.42
2022-08-21T23:08:24.132Z,1.67
2022-08-21T23:11:14.055Z,1.75
2022-08-21T23:14:01.142Z,1.17
2022-08-21T23:16:53.282Z,1.30
2022-08-21T23:19:46.185Z,1.45
2022-08-21T23:22:38.029Z,1.60
2022-08-21T23:25:39.713Z,1.95
2022-08-21T23:28:33.053Z,1.40
2022-08-21T23:31:25.180Z,1.30
2022-08-21T23:34:21.885Z,1.47
2022-08-21T23:37:41.183Z,1.35
2022-08-21T23:40:51.066Z,1.40
2022-08-21T23:43:42.958Z,1.60
2022-08-21T23:46:37.994Z,1.20
2022-08-21T23:49:35.555Z,1.40
2022-08-21T23:52:34.977Z,1.65
2022-08-21T23:55:31.504Z,1.43
2022-08-21T23:58:28.632Z,1.17
